createdAt,value
2019-02-07T00:00:35.089Z,-5.01
2019-02-07T00:03:25.606Z,-5.55
2019-02-07T00:06:14.459Z,-5.76
2019-02-07T00:12:52.182Z,-5.45
2019-02-07T00:15:41.627Z,-5.38
2019-02-07T00:18:31.380Z,-5.13
2019-02-07T00:21:23.429Z,-5.03
2019-02-07T00:24:13.373Z,-5.15
2019-02-07T00:27:04.567Z,-5.17
2019-02-07T00:29:54.569Z,-5.31
2019-02-07T00:32:42.886Z,-5.17
2019-02-07T00:35:32.875Z,-5.02
2019-02-07T00:38:22.466Z,-5.02
2019-02-07T00:41:12.254Z,-5.06
2019-02-07T00:44:01.868Z,-4.83
2019-02-07T00:46:51.610Z,-4.74
2019-02-07T00:49:42.241Z,-4.74
2019-02-07T00:52:44.883Z,-4.66
2019-02-07T00:55:23.627Z,-4.86
2019-02-07T00:58:32.287Z,-4.93
2019-02-07T01:01:22.141Z,-4.90
2019-02-07T01:10:57.217Z,-4.87
2019-02-07T01:13:47.238Z,-4.88
2019-02-07T01:16:37.098Z,-4.75
2019-02-07T01:19:26.934Z,-4.74
2019-02-07T01:22:17.184Z,-4.84
2019-02-07T01:25:46.916Z,-4.76
2019-02-07T01:28:36.797Z,-4.85
2019-02-07T01:31:26.530Z,-4.48
2019-02-07T01:34:16.729Z,-4.49
2019-02-07T01:37:08.849Z,-4.41
2019-02-07T01:39:59.450Z,-4.32
2019-02-07T01:42:49.648Z,-4.33
2019-02-07T01:45:39.947Z,-4.26
2019-02-07T01:48:30.204Z,-4.34
2019-02-07T01:51:20.312Z,-4.37
2019-02-07T01:54:10.392Z,-4.21
2019-02-07T01:57:00.144Z,-4.04
2019-02-07T01:59:49.644Z,-4.00
2019-02-07T02:02:39.535Z,-4.14
2019-02-07T02:06:08.641Z,-4.08
2019-02-07T02:08:58.819Z,-4.03
2019-02-07T02:11:48.786Z,-4.12
2019-02-07T02:14:39.605Z,-4.17
2019-02-07T02:17:29.699Z,-4.28
2019-02-07T02:20:59.604Z,-4.10
2019-02-07T02:23:49.942Z,-4.12
2019-02-07T02:26:38.759Z,-4.17
2019-02-07T02:29:29.051Z,-4.10
2019-02-07T02:32:18.797Z,-4.10
2019-02-07T02:35:08.676Z,-4.12
2019-02-07T02:38:00.861Z,-4.08
2019-02-07T02:40:50.302Z,-4.40
2019-02-07T02:43:39.856Z,-4.30
2019-02-07T02:46:29.673Z,-4.38
2019-02-07T02:49:19.474Z,-4.57
2019-02-07T02:52:09.502Z,-4.63
2019-02-07T02:55:00.040Z,-4.32
2019-02-07T02:57:50.638Z,-4.47
2019-02-07T03:00:59.208Z,-4.46
2019-02-07T03:03:55.560Z,-4.39
2019-02-07T03:06:59.877Z,-4.47
2019-02-07T03:10:08.311Z,-4.48
2019-02-07T03:13:16.847Z,-4.34
2019-02-07T03:16:25.610Z,-4.24
2019-02-07T03:19:34.117Z,-4.52
2019-02-07T03:22:42.987Z,-4.85
2019-02-07T03:25:51.874Z,-4.79
2019-02-07T03:29:01.203Z,-4.81
2019-02-07T03:32:11.156Z,-4.59
2019-02-07T03:35:19.594Z,-4.44
2019-02-07T03:38:28.562Z,-4.57
2019-02-07T03:41:37.623Z,-4.64
2019-02-07T03:44:46.432Z,-4.71
2019-02-07T03:47:55.200Z,-5.03
2019-02-07T03:51:04.071Z,-4.84
2019-02-07T03:54:02.452Z,-4.53
2019-02-07T03:57:11.288Z,-4.53
2019-02-07T04:00:20.064Z,-4.44
2019-02-07T04:03:17.710Z,-4.49
2019-02-07T04:06:27.265Z,-4.52
2019-02-07T04:09:36.087Z,-4.66
2019-02-07T04:12:35.027Z,-4.49
2019-02-07T04:15:36.771Z,-4.49
2019-02-07T04:18:45.567Z,-4.65
2019-02-07T04:21:54.280Z,-5.17
2019-02-07T04:25:03.429Z,-5.05
2019-02-07T04:28:11.930Z,-4.99
2019-02-07T04:31:20.378Z,-5.18
2019-02-07T04:34:28.888Z,-5.08
2019-02-07T04:37:37.667Z,-4.96
2019-02-07T04:40:35.495Z,-4.85
2019-02-07T04:43:44.331Z,-4.52
2019-02-07T04:46:53.051Z,-4.62
2019-02-07T04:50:01.666Z,-4.67
2019-02-07T04:53:10.847Z,-4.86
2019-02-07T04:56:19.608Z,-5.05
2019-02-07T04:59:17.483Z,-4.87
2019-02-07T05:02:26.254Z,-4.88
2019-02-07T05:05:34.865Z,-5.24
2019-02-07T05:09:04.018Z,-5.01
2019-02-07T05:11:59.597Z,-4.89
2019-02-07T05:15:08.131Z,-5.03
2019-02-07T05:18:16.826Z,-5.34
2019-02-07T05:21:25.386Z,-4.98
2019-02-07T05:24:34.147Z,-5.07
2019-02-07T05:27:42.655Z,-5.22
2019-02-07T05:30:51.536Z,-5.47
2019-02-07T05:34:00.400Z,-5.42
2019-02-07T05:37:09.110Z,-5.37
2019-02-07T05:40:17.559Z,-5.24
2019-02-07T05:43:48.250Z,-5.19
2019-02-07T05:47:15.611Z,-5.19
2019-02-07T05:50:25.028Z,-5.12
2019-02-07T05:53:33.641Z,-5.26
2019-02-07T05:56:42.567Z,-5.32
2019-02-07T05:59:52.146Z,-5.46
2019-02-07T06:03:01.119Z,-5.48
2019-02-07T06:06:09.813Z,-5.57
2019-02-07T06:09:18.320Z,-5.78
2019-02-07T06:12:27.012Z,-5.76
2019-02-07T06:15:35.588Z,-5.69
2019-02-07T06:18:47.065Z,-5.65
2019-02-07T06:21:48.129Z,-5.66
2019-02-07T06:24:46.887Z,-5.69
2019-02-07T06:27:58.590Z,-5.66
2019-02-07T06:31:07.428Z,-5.69
2019-02-07T06:34:16.589Z,-5.72
2019-02-07T06:37:25.577Z,-5.78
2019-02-07T06:40:34.949Z,-5.89
2019-02-07T06:43:43.474Z,-5.78
2019-02-07T06:46:52.658Z,-5.80
2019-02-07T06:50:01.247Z,-5.88
2019-02-07T06:53:11.292Z,-5.95
2019-02-07T06:56:21.564Z,-6.11
2019-02-07T06:59:30.328Z,-6.24
2019-02-07T07:02:38.812Z,-6.14
2019-02-07T07:05:47.948Z,-6.25
2019-02-07T07:08:56.810Z,-6.17
2019-02-07T07:12:05.736Z,-6.08
2019-02-07T07:15:14.589Z,-5.90
2019-02-07T07:18:25.126Z,-5.79
2019-02-07T07:21:34.610Z,-5.80
2019-02-07T07:24:43.176Z,-5.88
2019-02-07T07:27:52.264Z,-6.09
2019-02-07T07:31:01.315Z,-5.99
2019-02-07T07:34:01.517Z,-5.69
2019-02-07T07:37:09.195Z,-5.52
2019-02-07T07:40:18.260Z,-5.31
2019-02-07T07:43:27.313Z,-5.28
2019-02-07T07:46:28.025Z,-5.09
2019-02-07T07:49:28.967Z,-5.08
2019-02-07T07:52:37.557Z,-5.06
2019-02-07T07:55:46.517Z,-4.96
2019-02-07T07:58:55.345Z,-4.74
2019-02-07T08:02:25.208Z,-4.52
2019-02-07T08:05:21.860Z,-4.25
2019-02-07T08:08:30.759Z,-4.15
2019-02-07T08:11:39.272Z,-3.75
2019-02-07T08:14:48.299Z,-3.54
2019-02-07T08:17:58.003Z,-3.58
2019-02-07T08:21:06.538Z,-3.31
2019-02-07T08:24:14.971Z,-3.37
2019-02-07T08:27:24.382Z,-3.68
2019-02-07T08:30:53.843Z,-3.52
2019-02-07T08:34:03.172Z,-3.21
2019-02-07T08:37:12.289Z,-3.18
2019-02-07T08:40:21.631Z,-3.04
2019-02-07T08:43:30.437Z,-2.83
2019-02-07T08:46:39.217Z,-2.73
2019-02-07T08:49:48.323Z,-2.60
2019-02-07T08:52:57.757Z,-2.29
2019-02-07T08:56:06.191Z,-1.76
2019-02-07T08:59:15.573Z,-1.76
2019-02-07T09:02:24.613Z,-2.15
2019-02-07T09:05:24.559Z,-2.18
2019-02-07T09:08:34.785Z,-1.65
2019-02-07T09:11:38.849Z,-1.44
2019-02-07T09:15:06.835Z,-1.32
2019-02-07T09:18:34.516Z,-1.26
2019-02-07T09:21:43.599Z,-1.26
2019-02-07T09:24:52.045Z,-0.87
2019-02-07T09:28:01.260Z,-0.38
2019-02-07T09:31:10.085Z,-0.27
2019-02-07T09:34:37.842Z,-0.45
2019-02-07T09:38:05.568Z,-0.19
2019-02-07T09:41:10.878Z,-0.19
2019-02-07T09:44:19.312Z,-0.02
2019-02-07T09:47:28.205Z,0.34
2019-02-07T09:50:37.312Z,0.55
2019-02-07T09:54:05.211Z,0.59
2019-02-07T09:57:10.986Z,0.59
2019-02-07T10:00:19.694Z,0.24
2019-02-07T10:03:19.213Z,0.26
2019-02-07T10:06:28.504Z,0.80
2019-02-07T10:09:37.342Z,0.94
2019-02-07T10:12:46.456Z,0.90
2019-02-07T10:15:55.442Z,0.72
2019-02-07T10:19:04.142Z,0.69
2019-02-07T10:22:13.718Z,0.92
2019-02-07T10:25:22.623Z,1.07
2019-02-07T10:28:31.688Z,1.35
2019-02-07T10:31:41.297Z,1.22
2019-02-07T10:34:50.815Z,1.05
2019-02-07T10:38:01.596Z,1.13
2019-02-07T10:41:10.528Z,1.37
2019-02-07T10:44:19.411Z,1.39
2019-02-07T10:47:30.484Z,1.22
2019-02-07T10:50:39.514Z,1.34
2019-02-07T10:53:36.326Z,1.66
2019-02-07T10:56:45.770Z,1.89
2019-02-07T11:03:11.880Z,1.97
2019-02-07T11:06:21.676Z,1.72
2019-02-07T11:09:49.420Z,2.03
2019-02-07T11:12:58.340Z,2.33
2019-02-07T11:16:06.804Z,2.45
2019-02-07T11:19:09.281Z,2.48
2019-02-07T11:22:37.026Z,3.01
2019-02-07T11:26:05.135Z,3.02
2019-02-07T11:29:32.868Z,3.09
2019-02-07T11:32:30.114Z,3.09
2019-02-07T11:35:39.180Z,3.24
2019-02-07T11:38:47.866Z,2.90
2019-02-07T11:41:56.308Z,3.50
2019-02-07T11:44:55.311Z,3.50
2019-02-07T11:47:59.298Z,3.65
2019-02-07T11:51:08.086Z,3.74
2019-02-07T11:54:17.143Z,4.00
2019-02-07T11:57:25.997Z,4.15
2019-02-07T12:00:55.633Z,4.25
2019-02-07T12:04:05.048Z,4.43
2019-02-07T12:07:13.496Z,4.52
2019-02-07T12:10:13.329Z,4.27
2019-02-07T12:13:22.064Z,4.27
2019-02-07T12:16:30.681Z,4.58
2019-02-07T12:19:30.527Z,4.68
2019-02-07T12:22:39.296Z,4.74
2019-02-07T12:25:48.155Z,4.81
2019-02-07T12:28:56.872Z,4.75
2019-02-07T12:32:26.332Z,4.76
2019-02-07T12:35:37.159Z,4.83
2019-02-07T12:38:46.267Z,4.92
2019-02-07T12:41:55.217Z,4.89
2019-02-07T12:45:04.447Z,4.82
2019-02-07T12:48:13.612Z,4.69
2019-02-07T12:51:22.054Z,4.66
2019-02-07T12:54:32.523Z,4.62
2019-02-07T12:57:41.460Z,4.60
2019-02-07T13:00:50.222Z,4.46
2019-02-07T13:03:59.314Z,4.39
2019-02-07T13:07:29.060Z,4.27
2019-02-07T13:10:37.681Z,4.15
2019-02-07T13:13:47.308Z,4.00
2019-02-07T13:16:56.098Z,3.97
2019-02-07T13:20:04.599Z,3.95
2019-02-07T13:23:13.603Z,3.86
2019-02-07T13:26:22.648Z,3.84
2019-02-07T13:29:31.280Z,3.88
2019-02-07T13:32:28.314Z,3.97
2019-02-07T13:35:37.241Z,3.96
2019-02-07T13:38:45.882Z,4.02
2019-02-07T13:41:54.448Z,4.13
2019-02-07T13:45:03.217Z,4.18
2019-02-07T13:48:02.247Z,4.04
2019-02-07T13:51:10.783Z,3.96
2019-02-07T13:54:19.219Z,3.88
2019-02-07T13:57:28.113Z,3.94
2019-02-07T14:00:36.716Z,4.08
2019-02-07T14:03:45.778Z,4.04
2019-02-07T14:06:54.239Z,3.99
2019-02-07T14:10:03.039Z,3.96
2019-02-07T14:13:11.927Z,3.94
2019-02-07T14:16:39.545Z,4.00
2019-02-07T14:19:48.546Z,3.87
2019-02-07T14:22:57.478Z,3.83
2019-02-07T14:26:06.158Z,3.82
2019-02-07T14:29:14.703Z,3.64
2019-02-07T14:32:23.926Z,3.62
2019-02-07T14:35:51.769Z,3.47
2019-02-07T14:39:00.609Z,3.34
2019-02-07T14:42:09.413Z,3.23
2019-02-07T14:45:19.179Z,3.25
2019-02-07T14:51:44.943Z,3.22
2019-02-07T14:54:34.887Z,3.20
2019-02-07T14:57:25.110Z,3.09
2019-02-07T15:00:54.535Z,3.07
2019-02-07T15:03:44.991Z,2.91
2019-02-07T15:06:34.532Z,2.91
2019-02-07T15:09:43.908Z,2.74
2019-02-07T15:12:33.781Z,2.84
2019-02-07T15:15:24.854Z,2.76
2019-02-07T15:18:14.797Z,2.76
2019-02-07T15:21:27.246Z,2.77
2019-02-07T15:24:17.312Z,2.75
2019-02-07T15:27:07.482Z,2.70
2019-02-07T15:33:25.231Z,2.65
2019-02-07T15:36:15.025Z,2.65
2019-02-07T15:39:44.142Z,2.63
2019-02-07T15:42:53.385Z,2.11
2019-02-07T15:45:43.630Z,2.11
2019-02-07T15:48:33.624Z,2.31
2019-02-07T15:51:42.033Z,2.44
2019-02-07T15:54:32.537Z,2.44
2019-02-07T15:58:01.856Z,2.38
2019-02-07T16:01:11.243Z,2.31
2019-02-07T16:04:21.229Z,2.27
2019-02-07T16:07:30.424Z,2.90
2019-02-07T16:10:20.459Z,2.90
2019-02-07T16:16:39.946Z,3.77
2019-02-07T16:19:48.928Z,4.09
2019-02-07T16:22:59.014Z,4.09
2019-02-07T16:25:49.966Z,4.09
2019-02-07T16:28:43.339Z,4.14
2019-02-07T16:31:52.650Z,4.07
2019-02-07T16:34:43.248Z,4.07
2019-02-07T16:37:32.900Z,4.06
2019-02-07T16:46:54.583Z,4.23
2019-02-07T16:49:46.583Z,4.26
2019-02-07T16:52:36.510Z,4.29
2019-02-07T16:55:26.495Z,4.28
2019-02-07T16:58:16.493Z,4.22
2019-02-07T17:01:45.895Z,4.17
2019-02-07T17:04:35.537Z,4.05
2019-02-07T17:07:25.423Z,4.12
2019-02-07T17:10:54.891Z,3.98
2019-02-07T17:17:01.904Z,4.07
2019-02-07T17:19:51.472Z,4.12
2019-02-07T17:22:42.374Z,4.06
2019-02-07T17:25:32.382Z,4.11
2019-02-07T17:28:22.549Z,4.14
2019-02-07T17:31:12.815Z,4.18
2019-02-07T17:34:04.739Z,4.13
2019-02-07T17:36:55.014Z,4.11
2019-02-07T17:39:44.922Z,4.03
2019-02-07T17:45:44.422Z,4.04
2019-02-07T17:48:34.755Z,4.08
2019-02-07T17:51:24.455Z,4.10
2019-02-07T17:54:18.898Z,4.05
2019-02-07T17:57:06.239Z,4.05
2019-02-07T17:59:56.099Z,4.08
2019-02-07T18:02:45.692Z,4.08
2019-02-07T18:05:35.776Z,4.07
2019-02-07T18:08:25.458Z,4.04
2019-02-07T18:11:15.371Z,4.09
2019-02-07T18:14:44.510Z,4.09
2019-02-07T18:17:34.477Z,4.12
2019-02-07T18:20:24.495Z,4.06
2019-02-07T18:23:14.198Z,4.11
2019-02-07T18:26:03.846Z,4.14
2019-02-07T18:28:53.725Z,4.12
2019-02-07T18:31:43.593Z,4.10
2019-02-07T18:34:33.886Z,4.16
2019-02-07T18:37:24.146Z,4.16
2019-02-07T18:40:32.949Z,4.00
2019-02-07T18:43:24.079Z,4.00
2019-02-07T18:46:14.506Z,4.00
2019-02-07T18:49:04.674Z,3.98
2019-02-07T18:51:55.726Z,3.96
2019-02-07T18:54:45.749Z,3.96
2019-02-07T18:57:35.861Z,4.03
2019-02-07T19:00:45.670Z,4.06
2019-02-07T19:03:35.555Z,3.99
2019-02-07T19:06:27.465Z,3.96
2019-02-07T19:09:17.258Z,3.93
2019-02-07T19:12:06.776Z,3.95
2019-02-07T19:14:56.320Z,4.01
2019-02-07T19:17:46.512Z,3.98
2019-02-07T19:20:36.377Z,3.98
2019-02-07T19:23:25.977Z,3.99
2019-02-07T19:26:15.432Z,3.86
2019-02-07T19:29:44.549Z,3.84
2019-02-07T19:32:34.023Z,3.83
2019-02-07T19:35:23.630Z,3.87
2019-02-07T19:38:13.441Z,3.90
2019-02-07T19:41:03.596Z,3.86
2019-02-07T19:43:53.198Z,3.87
2019-02-07T19:46:44.744Z,3.86
2019-02-07T19:49:34.824Z,3.82
2019-02-07T19:52:25.192Z,3.68
2019-02-07T19:55:17.350Z,3.68
2019-02-07T19:58:07.198Z,3.72
2019-02-07T20:00:57.364Z,3.71
2019-02-07T20:03:47.485Z,3.75
2019-02-07T20:06:38.223Z,3.75
2019-02-07T20:09:27.666Z,3.64
2019-02-07T20:12:17.677Z,3.56
2019-02-07T20:15:29.791Z,3.52
2019-02-07T20:18:19.695Z,3.54
2019-02-07T20:21:09.754Z,3.62
2019-02-07T20:23:59.700Z,3.70
2019-02-07T20:26:49.220Z,3.75
2019-02-07T20:29:38.676Z,3.87
2019-02-07T20:32:28.371Z,3.82
2019-02-07T20:35:18.417Z,3.78
2019-02-07T20:38:48.533Z,3.72
2019-02-07T20:41:38.223Z,3.78
2019-02-07T20:44:27.647Z,3.79
2019-02-07T20:47:17.816Z,3.79
2019-02-07T20:50:47.596Z,3.85
2019-02-07T20:53:37.725Z,3.80
2019-02-07T20:56:27.218Z,3.74
2019-02-07T20:59:17.381Z,3.72
2019-02-07T21:02:07.904Z,3.79
2019-02-07T21:04:58.380Z,3.76
2019-02-07T21:07:47.810Z,3.78
2019-02-07T21:10:38.169Z,3.82
2019-02-07T21:13:29.975Z,3.78
2019-02-07T21:16:42.344Z,3.80
2019-02-07T21:19:32.159Z,3.82
2019-02-07T21:22:22.247Z,3.83
2019-02-07T21:25:15.114Z,3.81
2019-02-07T21:28:25.771Z,3.81
2019-02-07T21:31:15.754Z,3.80
2019-02-07T21:34:24.686Z,3.90
2019-02-07T21:37:14.569Z,3.72
2019-02-07T21:40:46.455Z,3.86
2019-02-07T21:43:36.432Z,3.73
2019-02-07T21:46:26.921Z,3.74
2019-02-07T21:49:17.051Z,3.79
2019-02-07T21:52:06.884Z,3.67
2019-02-07T21:54:57.121Z,3.79
2019-02-07T21:57:47.460Z,3.67
2019-02-07T22:00:39.549Z,3.69
2019-02-07T22:03:28.975Z,3.83
2019-02-07T22:06:18.867Z,3.76
2019-02-07T22:09:51.222Z,3.79
2019-02-07T22:12:59.876Z,3.89
2019-02-07T22:15:51.427Z,3.89
2019-02-07T22:18:42.005Z,3.76
2019-02-07T22:21:32.270Z,3.64
2019-02-07T22:24:22.084Z,3.56
2019-02-07T22:27:12.264Z,3.68
2019-02-07T22:33:51.673Z,3.62
2019-02-07T22:36:41.385Z,3.51
2019-02-07T22:39:32.090Z,3.50
2019-02-07T22:42:23.640Z,3.56
2019-02-07T22:45:32.942Z,3.51
2019-02-07T22:48:22.989Z,3.51
2019-02-07T22:51:11.264Z,3.46
2019-02-07T22:54:01.348Z,3.37
2019-02-07T22:57:10.483Z,3.39
2019-02-07T23:00:00.662Z,3.39
2019-02-07T23:02:51.390Z,3.38
2019-02-07T23:05:41.080Z,3.36
2019-02-07T23:08:31.258Z,3.37
2019-02-07T23:11:21.304Z,3.35
2019-02-07T23:14:11.536Z,3.34
2019-02-07T23:17:01.366Z,3.30
2019-02-07T23:20:10.688Z,3.26
2019-02-07T23:23:05.340Z,3.26
2019-02-07T23:25:52.978Z,3.18
2019-02-07T23:28:43.060Z,3.25
2019-02-07T23:31:33.236Z,3.21
2019-02-07T23:34:23.170Z,3.10
2019-02-07T23:37:13.338Z,3.10
2019-02-07T23:40:03.621Z,3.16
2019-02-07T23:42:53.814Z,3.25
2019-02-07T23:45:44.231Z,3.26
2019-02-07T23:48:45.719Z,2.91
2019-02-07T23:51:35.341Z,2.91
2019-02-07T23:54:24.768Z,2.98
2019-02-07T23:57:14.896Z,2.94
